Time;durP1;ratioP1;P1;durP2;ratioP2;P2;SDS_P1;SDS_P2;PMS_P1;PMS_P2;Temp;Humidity;BMP_temperature;BMP_pressure;BME280_temperature;BME280_humidity;BME280_pressure;Samples;Min_cycle;Max_cycle;Signal;HPM_P1;HPM_P2
2022/10/09 00:01:18;;;;;;;15.15;4.00;;;;;;;7.53;100.00;99604.84;4973930;28;20491;-86
2022/10/09 00:03:46;;;;;;;16.77;3.50;;;;;;;7.72;100.00;99629.03;4977015;28;20042;-87
2022/10/09 00:06:15;;;;;;;18.60;3.42;;;;;;;7.73;100.00;99615.00;4994513;28;20084;-86
2022/10/09 00:08:44;;;;;;;12.43;3.03;;;;;;;7.57;100.00;99587.06;4995266;28;20033;-85
2022/10/09 00:11:15;;;;;;;13.65;3.08;;;;;;;7.73;100.00;99599.31;4977756;28;20117;-89
2022/10/09 00:13:43;;;;;;;10.85;2.53;;;;;;;7.87;100.00;99592.63;4993830;28;20037;-86
2022/10/09 00:16:12;;;;;;;9.10;2.42;;;;;;;8.04;100.00;99601.25;4978018;28;20554;-87
2022/10/09 00:18:37;;;;;;;15.25;2.92;;;;;;;7.91;100.00;99566.97;4961404;28;20044;-90
2022/10/09 00:21:05;;;;;;;11.60;2.70;;;;;;;8.21;100.00;99607.31;4994667;28;20473;-86
2022/10/09 00:23:30;;;;;;;16.33;2.58;;;;;;;8.18;100.00;99586.75;4977716;28;20038;-88
2022/10/09 00:26:00;;;;;;;9.23;2.35;;;;;;;8.13;100.00;99568.91;4961735;28;20046;-87
2022/10/09 00:28:28;;;;;;;10.38;2.70;;;;;;;8.00;100.00;99552.91;4978058;28;20118;-90
2022/10/09 00:30:54;;;;;;;9.45;2.20;;;;;;;8.05;100.00;99570.72;4976324;28;20040;-85
2022/10/09 00:33:20;;;;;;;5.78;1.67;;;;;;;8.02;100.00;99571.06;4961946;28;20034;-86
2022/10/09 00:35:46;;;;;;;10.13;2.65;;;;;;;7.94;100.00;99580.53;4977920;28;20033;-89
2022/10/09 00:38:13;;;;;;;4.53;2.13;;;;;;;7.85;100.00;99582.31;4977774;28;20048;-85
2022/10/09 00:40:39;;;;;;;4.32;2.00;;;;;;;7.70;100.00;99563.06;4977605;28;20033;-86
2022/10/09 00:43:17;;;;;;;7.28;1.98;;;;;;;7.74;100.00;99568.75;4977186;28;20030;-86
2022/10/09 00:45:48;;;;;;;7.57;2.50;;;;;;;7.67;100.00;99579.06;4993610;28;20464;-84
2022/10/09 00:48:15;;;;;;;11.85;2.30;;;;;;;7.64;100.00;99571.53;4960942;28;20043;-86
2022/10/09 00:50:41;;;;;;;8.45;2.33;;;;;;;7.56;100.00;99567.94;4960696;28;20034;-86
2022/10/09 00:53:12;;;;;;;10.90;2.40;;;;;;;7.44;100.00;99548.31;4976935;28;20056;-86
2022/10/09 00:55:39;;;;;;;8.52;2.15;;;;;;;7.34;100.00;99542.44;4977147;28;20117;-87
2022/10/09 00:58:05;;;;;;;6.07;2.28;;;;;;;7.39;100.00;99558.44;4958215;28;20438;-88
2022/10/09 01:00:30;;;;;;;9.10;2.15;;;;;;;7.27;100.00;99545.72;4961265;28;20113;-85
2022/10/09 01:02:56;;;;;;;7.82;2.22;;;;;;;7.25;100.00;99552.84;4977192;28;20038;-85
2022/10/09 01:05:31;;;;;;;15.60;2.70;;;;;;;7.22;100.00;99555.78;4960504;28;20022;-87
2022/10/09 01:08:06;;;;;;;11.52;2.58;;;;;;;7.11;100.00;99543.06;4976569;28;20026;-83
2022/10/09 01:10:44;;;;;;;9.18;2.70;;;;;;;7.08;100.00;99543.38;4975594;28;20034;-85
2022/10/09 01:13:15;;;;;;;15.02;2.78;;;;;;;7.10;100.00;99549.25;4992988;28;20061;-85
2022/10/09 01:15:50;;;;;;;9.15;2.35;;;;;;;7.12;100.00;99549.91;4994939;28;20036;-85
2022/10/09 01:18:25;;;;;;;8.60;2.28;;;;;;;7.04;100.00;99558.53;4976729;28;20092;-85
2022/10/09 01:21:13;;;;;;;6.30;2.25;;;;;;;6.98;100.00;99556.56;4960935;28;20031;-85
2022/10/09 01:23:52;;;;;;;8.57;2.75;;;;;;;7.04;100.00;99548.09;4960414;28;20038;-85
2022/10/09 01:26:42;;;;;;;14.05;3.20;;;;;;;7.03;100.00;99550.84;4976285;28;20042;-87
2022/10/09 01:29:10;;;;;;;14.23;3.95;;;;;;;7.06;100.00;99535.69;4960004;28;20038;-86
2022/10/09 01:31:41;;;;;;;12.07;3.15;;;;;;;7.13;100.00;99543.72;4974924;28;20038;-87
2022/10/09 01:34:09;;;;;;;13.25;2.80;;;;;;;7.11;100.00;99532.63;4975886;28;20042;-86
2022/10/09 01:36:37;;;;;;;7.10;2.63;;;;;;;7.13;100.00;99521.00;4976261;28;20035;-87
2022/10/09 01:39:05;;;;;;;11.40;2.70;;;;;;;7.21;100.00;99528.06;4993444;28;20577;-86
2022/10/09 01:41:31;;;;;;;13.75;3.08;;;;;;;7.26;100.00;99523.16;4975795;28;20034;-87
2022/10/09 01:43:56;;;;;;;9.80;3.05;;;;;;;7.20;100.00;99518.59;4975980;28;20042;-87
2022/10/09 01:46:26;;;;;;;14.50;3.17;;;;;;;7.26;100.00;99520.53;4959635;28;20026;-85
2022/10/09 01:49:10;;;;;;;8.70;3.60;;;;;;;7.34;100.00;99538.03;4960106;28;20041;-85
2022/10/09 01:51:43;;;;;;;;;;;;;;;7.37;100.00;99526.44;4994149;28;20035;-85
2022/10/09 01:54:12;;;;;;;11.45;3.10;;;;;;;7.35;100.00;99523.19;4976870;28;19913;-86
2022/10/09 01:56:38;;;;;;;12.07;3.22;;;;;;;7.32;100.00;99507.84;4977664;28;20404;-86
2022/10/09 01:59:11;;;;;;;15.40;3.47;;;;;;;7.38;100.00;99507.19;4975805;28;20493;-87
2022/10/09 02:01:38;;;;;;;9.45;2.45;;;;;;;7.20;100.00;99479.41;4992544;28;20030;-85
2022/10/09 02:04:07;;;;;;;15.88;3.15;;;;;;;7.34;100.00;99493.63;4959597;28;20034;-85
2022/10/09 02:06:37;;;;;;;20.65;3.60;;;;;;;7.28;100.00;99482.06;4976021;28;20109;-86
2022/10/09 02:09:08;;;;;;;15.95;3.17;;;;;;;7.29;100.00;99483.69;4976672;28;20065;-87
2022/10/09 02:11:35;;;;;;;16.60;3.28;;;;;;;7.13;100.00;99447.91;4960112;28;20054;-85
2022/10/09 02:14:00;;;;;;;9.68;2.65;;;;;;;7.22;100.00;99461.00;4959952;28;20076;-86
2022/10/09 02:16:37;;;;;;;9.98;2.60;;;;;;;7.29;100.00;99472.41;4975826;28;20480;-88
2022/10/09 02:19:22;;;;;;;10.48;2.67;;;;;;;7.37;100.00;99474.22;4958330;28;20437;-86
2022/10/09 02:21:47;;;;;;;14.10;3.35;;;;;;;7.35;100.00;99470.94;4975602;28;20038;-85
2022/10/09 02:24:19;;;;;;;13.25;3.42;;;;;;;7.23;100.00;99457.41;4959626;28;20050;-88
2022/10/09 02:26:44;;;;;;;8.00;3.45;;;;;;;7.26;100.00;99470.13;4956470;28;20030;-87
2022/10/09 02:29:12;;;;;;;14.95;3.03;;;;;;;7.29;100.00;99473.25;4975719;28;20100;-85
2022/10/09 02:31:41;;;;;;;10.52;3.20;;;;;;;7.15;100.00;99450.38;4974288;28;20034;-86
2022/10/09 02:34:12;;;;;;;9.93;3.20;;;;;;;7.26;100.00;99460.50;4960080;28;20030;-87
2022/10/09 02:36:39;;;;;;;7.97;3.08;;;;;;;7.18;100.00;99460.50;4975725;28;20389;-87
2022/10/09 02:39:06;;;;;;;17.48;4.05;;;;;;;7.15;100.00;99453.78;4976073;28;21024;-86
2022/10/09 02:41:32;;;;;;;17.00;3.72;;;;;;;7.10;100.00;99447.44;4959745;28;20480;-85
2022/10/09 02:43:58;;;;;;;13.90;3.60;;;;;;;7.14;100.00;99451.34;4959341;28;20524;-88
2022/10/09 02:46:24;;;;;;;12.23;3.55;;;;;;;7.09;100.00;99451.03;4959880;28;20065;-87
2022/10/09 02:48:50;;;;;;;13.30;3.70;;;;;;;6.94;100.00;99438.59;4975917;28;20030;-86
2022/10/09 02:51:16;;;;;;;11.93;3.53;;;;;;;6.83;100.00;99423.25;4975705;28;20034;-88
2022/10/09 02:53:42;;;;;;;8.68;3.95;;;;;;;6.72;100.00;99421.75;4975712;28;20038;-86
2022/10/09 02:56:08;;;;;;;17.63;4.28;;;;;;;6.75;100.00;99428.47;4974886;28;20123;-86
2022/10/09 02:58:35;;;;;;;14.32;5.53;;;;;;;6.74;100.00;99432.06;4974902;28;20485;-89
2022/10/09 03:01:01;;;;;;;8.35;4.18;;;;;;;6.80;100.00;99434.00;4975257;28;20488;-85
2022/10/09 03:03:27;;;;;;;17.90;5.40;;;;;;;6.75;100.00;99423.25;4992425;28;20030;-85
2022/10/09 03:06:08;;;;;;;16.90;5.00;;;;;;;6.83;100.00;99431.91;4975159;28;20037;-85
2022/10/09 03:08:35;;;;;;;18.50;5.15;;;;;;;6.78;100.00;99423.75;4955791;28;20069;-87
2022/10/09 03:11:00;;;;;;;16.30;5.55;;;;;;;6.72;100.00;99419.97;4975239;28;20031;-87
2022/10/09 03:13:26;;;;;;;18.70;5.75;;;;;;;6.76;100.00;99420.47;4959433;28;20034;-88
2022/10/09 03:15:51;;;;;;;17.48;5.95;;;;;;;6.75;100.00;99412.81;4992532;28;20038;-87
2022/10/09 03:18:17;;;;;;;17.40;6.03;;;;;;;6.83;100.00;99425.84;4958474;28;20093;-86
2022/10/09 03:20:43;;;;;;;11.55;5.93;;;;;;;6.87;100.00;99416.72;4974731;28;20076;-85
2022/10/09 03:23:09;;;;;;;22.38;6.93;;;;;;;6.84;100.00;99398.78;4991353;28;20062;-85
2022/10/09 03:25:34;;;;;;;21.23;7.18;;;;;;;6.93;100.00;99395.22;4972554;28;20105;-84
2022/10/09 03:28:00;;;;;;;21.27;7.57;;;;;;;6.96;100.00;99397.50;4991196;28;20034;-83
2022/10/09 03:30:25;;;;;;;16.58;6.80;;;;;;;7.04;100.00;99401.09;4957691;28;20539;-83
2022/10/09 03:32:51;;;;;;;19.63;6.95;;;;;;;7.01;100.00;99407.47;4973943;28;20113;-84
2022/10/09 03:35:16;;;;;;;22.10;7.13;;;;;;;7.02;100.00;99406.50;4991640;28;20064;-84
2022/10/09 03:37:42;;;;;;;22.77;7.15;;;;;;;7.03;100.00;99394.25;4959928;28;20481;-84
2022/10/09 03:40:08;;;;;;;27.63;7.70;;;;;;;7.14;100.00;99401.75;4995284;28;20022;-84
2022/10/09 03:42:34;;;;;;;17.58;7.68;;;;;;;7.10;100.00;99384.78;4978045;28;20429;-84
2022/10/09 03:45:03;;;;;;;17.67;7.60;;;;;;;7.16;100.00;99389.34;4995433;28;20041;-86
2022/10/09 03:47:30;;;;;;;24.00;8.57;;;;;;;7.09;100.00;99372.72;4995845;28;20053;-85
2022/10/09 03:49:55;;;;;;;22.13;8.02;;;;;;;7.15;100.00;99382.50;4978192;28;20397;-84
2022/10/09 03:52:21;;;;;;;18.88;8.00;;;;;;;7.12;100.00;99373.19;4978046;28;20026;-85
2022/10/09 03:54:46;;;;;;;23.20;8.82;;;;;;;7.15;100.00;99378.09;4962143;28;20038;-85
2022/10/09 03:57:13;;;;;;;19.17;7.70;;;;;;;7.09;100.00;99365.69;4961468;28;20033;-86
2022/10/09 03:59:40;;;;;;;25.27;8.98;;;;;;;6.98;100.00;99361.63;4962147;28;20061;-84
2022/10/09 04:02:05;;;;;;;20.63;9.00;;;;;;;7.12;100.00;99377.63;4978270;28;20038;-86
2022/10/09 04:04:31;;;;;;;28.67;9.15;;;;;;;7.12;100.00;99373.19;4977028;28;20031;-86
2022/10/09 04:06:57;;;;;;;29.67;9.23;;;;;;;7.09;100.00;99370.13;4961679;28;20435;-84
2022/10/09 04:09:22;;;;;;;22.45;9.07;;;;;;;6.98;100.00;99352.97;4978035;28;20451;-84
2022/10/09 04:11:48;;;;;;;20.70;8.95;;;;;;;7.09;100.00;99377.94;4961365;28;20035;-86
2022/10/09 04:14:13;;;;;;;27.77;8.05;;;;;;;7.10;100.00;99369.94;4961205;28;20515;-86
2022/10/09 04:16:39;;;;;;;24.70;9.98;;;;;;;7.03;100.00;99360.31;4961666;28;20030;-85
2022/10/09 04:19:04;;;;;;;27.75;9.48;;;;;;;6.94;100.00;99355.09;4961716;28;20035;-86
2022/10/09 04:21:32;;;;;;;22.77;8.40;;;;;;;6.97;100.00;99359.97;4995489;28;20027;-86
2022/10/09 04:23:58;;;;;;;24.50;8.15;;;;;;;7.00;100.00;99364.88;4977437;28;20100;-85
2022/10/09 04:26:24;;;;;;;23.88;7.85;;;;;;;6.89;100.00;99339.13;4977753;28;20026;-86
2022/10/09 04:28:50;;;;;;;18.52;7.50;;;;;;;6.97;100.00;99354.78;4977789;28;20492;-85
2022/10/09 04:31:15;;;;;;;19.95;7.50;;;;;;;7.03;100.00;99358.53;4994848;28;20117;-84
2022/10/09 04:33:41;;;;;;;28.48;8.43;;;;;;;6.90;100.00;99350.34;4961390;28;20120;-85
2022/10/09 04:36:06;;;;;;;25.92;9.40;;;;;;;7.02;100.00;99356.06;4977371;28;20026;-86
2022/10/09 04:38:32;;;;;;;23.42;7.95;;;;;;;6.92;100.00;99330.97;4977335;28;20026;-84
2022/10/09 04:40:59;;;;;;;16.98;7.70;;;;;;;7.12;100.00;99356.72;4960968;28;20054;-85
2022/10/09 04:43:25;;;;;;;23.60;8.57;;;;;;;7.00;100.00;99340.59;4977230;28;20041;-87
2022/10/09 04:45:51;;;;;;;17.05;8.30;;;;;;;6.90;100.00;99325.09;4977577;28;20051;-85
2022/10/09 04:48:16;;;;;;;23.52;8.02;;;;;;;6.99;100.00;99350.19;4960553;28;20085;-86
2022/10/09 04:50:42;;;;;;;24.20;7.90;;;;;;;6.93;100.00;99343.03;4961022;28;20038;-85
2022/10/09 04:53:08;;;;;;;18.80;6.70;;;;;;;6.92;100.00;99335.34;4961018;28;20048;-85
2022/10/09 04:55:38;;;;;;;19.95;7.15;;;;;;;6.85;100.00;99329.97;4960519;28;20030;-84
2022/10/09 04:58:04;;;;;;;15.63;6.22;;;;;;;6.84;100.00;99328.34;4976659;28;20122;-86
2022/10/09 05:00:30;;;;;;;23.55;6.82;;;;;;;6.85;100.00;99332.56;4976276;28;20455;-86
2022/10/09 05:02:56;;;;;;;16.73;6.38;;;;;;;6.88;100.00;99327.06;4960742;28;20035;-84
2022/10/09 05:05:21;;;;;;;16.30;6.60;;;;;;;6.74;100.00;99312.84;4993717;28;20022;-85
2022/10/09 05:07:47;;;;;;;22.27;5.93;;;;;;;6.79;100.00;99320.19;4976755;28;20042;-86
2022/10/09 05:10:12;;;;;;;18.98;5.72;;;;;;;6.75;100.00;99318.88;4977000;28;20037;-86
2022/10/09 05:12:38;;;;;;;16.95;6.28;;;;;;;6.63;100.00;99306.16;4961135;28;20057;-87
2022/10/09 05:15:04;;;;;;;18.33;6.32;;;;;;;6.64;100.00;99301.75;4960760;28;20030;-85
2022/10/09 05:17:30;;;;;;;13.25;5.80;;;;;;;6.71;100.00;99321.81;4976717;28;20034;-85
2022/10/09 05:19:55;;;;;;;18.00;6.35;;;;;;;6.67;100.00;99320.50;4976976;28;20030;-87
2022/10/09 05:22:21;;;;;;;11.98;5.30;;;;;;;6.63;100.00;99305.34;4960961;28;20385;-88
2022/10/09 05:24:46;;;;;;;19.50;6.35;;;;;;;6.55;100.00;99283.47;4960776;28;20073;-86
2022/10/09 05:27:12;;;;;;;19.45;5.78;;;;;;;6.69;100.00;99302.09;4960755;28;20061;-86
2022/10/09 05:29:37;;;;;;;15.43;5.60;;;;;;;6.68;100.00;99314.31;4976766;28;20053;-89
2022/10/09 05:32:03;;;;;;;25.27;6.65;;;;;;;6.66;100.00;99311.03;4961232;28;20285;-89
2022/10/09 05:34:29;;;;;;;17.20;6.32;;;;;;;6.61;100.00;99302.09;4994346;28;20077;-87
2022/10/09 05:36:55;;;;;;;19.35;7.18;;;;;;;6.62;100.00;99309.75;4976968;28;20045;-88
2022/10/09 05:39:21;;;;;;;17.20;5.70;;;;;;;6.48;100.00;99289.50;4976247;28;20022;-84
2022/10/09 05:41:46;;;;;;;18.40;5.68;;;;;;;6.52;100.00;99294.25;4976898;28;20409;-87
2022/10/09 05:44:12;;;;;;;21.65;6.22;;;;;;;6.34;100.00;99270.94;4993980;28;20104;-87
2022/10/09 05:46:39;;;;;;;15.13;6.15;;;;;;;6.40;100.00;99291.13;4976804;28;20030;-85
2022/10/09 05:49:05;;;;;;;14.18;6.18;;;;;;;6.31;100.00;99273.03;4993957;28;20492;-87
2022/10/09 05:51:41;;;;;;;29.95;7.20;;;;;;;6.53;100.00;99276.81;4960457;28;20412;-86
2022/10/09 05:54:12;;;;;;;17.88;6.93;;;;;;;6.63;100.00;99287.88;4960939;28;20041;-86
2022/10/09 05:56:38;;;;;;;20.33;6.65;;;;;;;6.57;100.00;99268.47;4959843;28;20045;-85
2022/10/09 05:59:19;;;;;;;19.52;7.18;;;;;;;6.66;100.00;99274.53;4975969;28;20023;-86
2022/10/09 06:01:50;;;;;;;24.52;7.47;;;;;;;6.72;100.00;99294.75;4958756;28;20035;-87
2022/10/09 06:04:19;;;;;;;26.75;7.82;;;;;;;6.74;100.00;99281.53;4959852;28;20030;-86
2022/10/09 06:06:47;;;;;;;23.85;8.00;;;;;;;6.63;100.00;99269.63;4959928;28;20400;-86
2022/10/09 06:09:15;;;;;;;18.05;7.88;;;;;;;6.65;100.00;99280.72;4976360;28;20508;-86
2022/10/09 06:11:40;;;;;;;22.48;7.53;;;;;;;6.67;100.00;99285.78;4994036;28;20082;-87
2022/10/09 06:14:08;;;;;;;14.35;7.20;;;;;;;6.62;100.00;99283.66;4960714;28;20082;-89
2022/10/09 06:16:37;;;;;;;31.33;9.65;;;;;;;6.61;100.00;99281.22;4977226;28;20041;-88
2022/10/09 06:19:07;;;;;;;20.38;8.00;;;;;;;6.57;100.00;99280.72;4976256;28;20488;-87
2022/10/09 06:21:33;;;;;;;23.58;8.23;;;;;;;6.50;100.00;99275.34;4976369;28;20065;-86
2022/10/09 06:24:00;;;;;;;19.65;7.13;;;;;;;6.41;100.00;99266.69;4959849;28;20492;-86
2022/10/09 06:26:28;;;;;;;16.92;7.75;;;;;;;6.49;100.00;99280.72;4959566;28;20030;-86
2022/10/09 06:28:54;;;;;;;23.15;7.20;;;;;;;6.50;100.00;99274.53;4992659;28;20392;-84
2022/10/09 06:31:22;;;;;;;20.40;8.82;;;;;;;6.56;100.00;99279.09;4974286;28;20061;-84
2022/10/09 06:33:49;;;;;;;22.58;7.45;;;;;;;6.50;100.00;99261.50;4975086;28;20026;-85
2022/10/09 06:36:20;;;;;;;24.63;7.47;;;;;;;6.66;100.00;99258.88;4974724;28;20547;-86
2022/10/09 06:38:47;;;;;;;22.05;7.28;;;;;;;6.66;100.00;99268.50;4958415;28;20038;-86
2022/10/09 06:41:17;;;;;;;20.33;7.63;;;;;;;6.75;100.00;99267.50;4990565;28;20030;-86
2022/10/09 06:43:49;;;;;;;21.38;7.32;;;;;;;6.80;100.00;99264.41;4960224;28;20520;-87
2022/10/09 06:46:15;;;;;;;13.88;6.38;;;;;;;6.79;100.00;99252.34;4992462;28;20042;-83
2022/10/09 06:48:40;;;;;;;16.75;6.13;;;;;;;6.88;100.00;99254.00;4992286;28;20137;-83
2022/10/09 06:51:12;;;;;;;18.83;6.85;;;;;;;6.94;100.00;99245.50;4974281;28;20369;-83
2022/10/09 06:53:40;;;;;;;22.80;6.20;;;;;;;6.98;100.00;99245.97;4974895;28;20030;-84
2022/10/09 06:56:09;;;;;;;23.98;6.55;;;;;;;7.09;100.00;99252.66;4991835;28;20038;-84
2022/10/09 06:58:38;;;;;;;20.73;6.35;;;;;;;7.17;100.00;99257.00;4958895;28;20022;-83
2022/10/09 07:01:07;;;;;;;20.20;7.82;;;;;;;7.20;100.00;99238.44;4974901;28;20108;-84
2022/10/09 07:03:33;;;;;;;35.85;12.98;;;;;;;6.79;100.00;99221.03;4974449;28;20040;-84
2022/10/09 07:06:13;;;;;;;32.30;10.18;;;;;;;7.23;100.00;99243.31;4974859;28;20026;-87
2022/10/09 07:08:41;;;;;;;31.77;10.15;;;;;;;7.35;100.00;99249.78;4959121;28;20404;-86
2022/10/09 07:11:35;;;;;;;27.33;11.25;;;;;;;7.38;100.00;99231.19;4976626;28;20428;-87
2022/10/09 07:14:03;;;;;;;30.33;12.30;;;;;;;7.52;100.00;99249.72;4976485;28;20054;-85
2022/10/09 07:16:36;;;;;;;32.30;12.57;;;;;;;7.52;100.00;99234.88;4979004;28;20506;-84
2022/10/09 07:19:06;;;;;;;26.48;8.98;;;;;;;7.54;100.00;99240.75;4977456;28;20408;-84
2022/10/09 07:21:34;;;;;;;17.75;7.25;;;;;;;7.59;100.00;99237.63;4978538;28;20030;-84
2022/10/09 07:24:01;;;;;;;21.38;7.30;;;;;;;7.49;100.00;99222.16;4978320;28;20114;-83
2022/10/09 07:26:29;;;;;;;18.98;7.20;;;;;;;7.68;100.00;99233.19;4995761;28;20030;-83
2022/10/09 07:28:55;;;;;;;24.33;7.15;;;;;;;7.77;100.00;99234.75;4996172;28;20034;-84
2022/10/09 07:31:24;;;;;;;25.88;6.20;;;;;;;7.82;100.00;99234.25;4962485;28;20026;-85
2022/10/09 07:33:54;;;;;;;19.50;5.22;;;;;;;7.94;100.00;99221.63;4978270;28;20026;-86
2022/10/09 07:36:20;;;;;;;14.38;5.15;;;;;;;8.11;100.00;99224.94;4978144;28;20038;-85
2022/10/09 07:38:56;;;;;;;20.13;5.20;;;;;;;8.18;100.00;99225.03;4978050;28;20031;-84
2022/10/09 07:41:24;;;;;;;18.08;5.53;;;;;;;8.28;100.00;99231.66;4977680;28;20428;-84
2022/10/09 07:43:50;;;;;;;17.20;6.00;;;;;;;8.32;100.00;99216.44;4976880;28;20080;-83
2022/10/09 07:46:19;;;;;;;16.27;4.65;;;;;;;8.48;100.00;99239.03;4980977;28;20469;-85
2022/10/09 07:48:46;;;;;;;17.00;4.72;;;;;;;8.51;100.00;99223.03;4978500;28;20481;-86
2022/10/09 07:51:19;;;;;;;12.43;4.38;;;;;;;8.72;100.00;99232.00;4978469;28;20396;-85
2022/10/09 07:53:46;;;;;;;20.05;3.95;;;;;;;8.71;100.00;99220.75;4994669;28;20034;-86
2022/10/09 07:56:17;;;;;;;9.48;3.85;;;;;;;8.79;100.00;99221.63;4977022;28;20045;-82
2022/10/09 07:58:48;;;;;;;21.73;4.63;;;;;;;8.83;100.00;99207.19;4959192;28;20093;-82
2022/10/09 08:01:14;;;;;;;14.40;4.32;;;;;;;8.82;100.00;99213.44;4961299;28;20539;-82
2022/10/09 08:03:39;;;;;;;11.18;3.58;;;;;;;8.91;100.00;99219.41;4977628;28;20117;-81
2022/10/09 08:06:05;;;;;;;14.88;4.10;;;;;;;8.97;100.00;99203.78;4995407;28;20030;-81
2022/10/09 08:08:31;;;;;;;15.65;4.43;;;;;;;8.91;100.00;99207.13;4994766;28;20045;-84
2022/10/09 08:10:57;;;;;;;17.50;3.70;;;;;;;9.11;100.00;99209.22;4961240;28;20510;-82
2022/10/09 08:13:23;;;;;;;16.85;3.53;;;;;;;9.08;100.00;99191.25;4994723;28;20026;-82
2022/10/09 08:15:49;;;;;;;12.32;3.80;;;;;;;9.29;100.00;99209.66;4959334;28;20053;-83
2022/10/09 08:18:15;;;;;;;12.32;3.70;;;;;;;9.32;100.00;99208.47;4976133;28;20039;-82
2022/10/09 08:20:40;;;;;;;11.38;4.13;;;;;;;9.28;100.00;99202.81;4993493;28;20504;-81
2022/10/09 08:23:06;;;;;;;9.77;4.10;;;;;;;9.35;100.00;99183.72;4992936;28;20555;-82
2022/10/09 08:25:35;;;;;;;11.43;3.47;;;;;;;9.41;100.00;99188.22;4960846;28;20037;-83
2022/10/09 08:28:02;;;;;;;10.75;3.58;;;;;;;9.56;100.00;99204.75;4959723;28;20101;-84
2022/10/09 08:30:29;;;;;;;10.32;3.38;;;;;;;9.56;100.00;99185.59;4959757;28;20034;-84
2022/10/09 08:32:55;;;;;;;7.85;3.38;;;;;;;9.61;100.00;99188.47;4961516;28;20497;-80
2022/10/09 08:35:21;;;;;;;10.48;3.00;;;;;;;9.72;100.00;99179.31;4958774;28;20032;-82
2022/10/09 08:37:46;;;;;;;15.63;3.53;;;;;;;9.76;100.00;99172.69;4960384;28;20022;-82
2022/10/09 08:40:21;;;;;;;19.40;3.65;;;;;;;9.81;100.00;99167.72;4961522;28;20165;-87
2022/10/09 08:43:02;;;;;;;11.88;3.83;;;;;;;9.63;100.00;99138.47;4976172;28;20040;-84
2022/10/09 08:45:28;;;;;;;12.30;3.80;;;;;;;9.91;100.00;99151.66;4977504;28;20077;-87
2022/10/09 08:48:00;;;;;;;7.47;3.25;;;;;;;10.11;100.00;99123.00;4977999;28;20029;-86
2022/10/09 08:50:33;;;;;;;13.95;4.15;;;;;;;10.57;100.00;99160.31;4960062;28;20061;-85
2022/10/09 08:53:05;;;;;;;7.82;3.47;;;;;;;10.57;100.00;99137.50;4960412;28;20038;-87
2022/10/09 08:55:40;;;;;;;15.48;3.78;;;;;;;10.86;100.00;99142.72;4961461;28;20047;-87
2022/10/09 08:58:16;;;;;;;11.02;2.90;;;;;;;10.92;100.00;99157.69;4961565;28;20037;-86
2022/10/09 09:00:50;;;;;;;7.03;2.90;;;;;;;10.80;100.00;99148.75;4961267;28;20045;-88
2022/10/09 09:03:32;;;;;;;6.78;2.80;;;;;;;10.66;100.00;99147.84;4978265;28;20501;-88
2022/10/09 09:06:02;;;;;;;13.85;3.63;;;;;;;10.53;100.00;99143.31;4961561;28;20027;-88
2022/10/09 09:08:52;;;;;;;6.35;3.17;;;;;;;10.39;100.00;99135.31;4960853;28;20036;-92
2022/10/09 09:15:34;;;;;;;9.38;3.70;;;;;;;11.07;100.00;99104.25;4987755;28;20100;-88
2022/10/09 09:18:37;;;;;;;12.90;3.17;;;;;;;11.58;100.00;99150.28;4952580;28;20523;-87
2022/10/09 09:21:41;;;;;;;7.00;3.33;;;;;;;11.82;100.00;99154.19;4992059;28;20026;-83
2022/10/09 09:24:37;;;;;;;7.70;2.78;;;;;;;12.04;100.00;99140.91;4957516;28;20440;-83
2022/10/09 09:27:11;;;;;;;7.88;2.97;;;;;;;12.13;100.00;99139.69;4974824;28;20022;-82
2022/10/09 09:29:50;;;;;;;6.57;3.08;;;;;;;12.44;100.00;99129.53;4974120;28;20030;-83
2022/10/09 09:32:20;;;;;;;9.98;2.95;;;;;;;12.66;100.00;99122.22;4990334;28;20490;-83
2022/10/09 09:34:47;;;;;;;10.52;2.90;;;;;;;12.88;100.00;99119.31;4958603;28;20500;-84
2022/10/09 09:37:15;;;;;;;7.25;2.97;;;;;;;13.06;100.00;99123.13;4974113;28;20065;-83
2022/10/09 09:39:45;;;;;;;5.13;2.75;;;;;;;13.21;100.00;99107.84;4974972;28;20440;-83
2022/10/09 09:42:17;;;;;;;11.93;2.75;;;;;;;13.36;100.00;99117.31;4975777;28;20379;-84
2022/10/09 09:45:05;;;;;;;8.95;2.30;;;;;;;13.29;100.00;99097.06;4974309;28;20459;-85
2022/10/09 09:47:39;;;;;;;10.77;2.90;;;;;;;13.57;100.00;99101.22;4974005;28;20054;-85
2022/10/09 09:50:06;;;;;;;6.57;2.38;;;;;;;13.70;100.00;99105.59;4991030;28;20065;-84
2022/10/09 09:52:45;;;;;;;6.85;2.60;;;;;;;13.78;100.00;99103.69;4991480;28;20380;-85
2022/10/09 09:55:31;;;;;;;9.13;2.70;;;;;;;14.08;100.00;99093.31;4992218;28;20485;-83
2022/10/09 09:58:04;;;;;;;11.15;3.10;;;;;;;13.93;100.00;99092.81;4957011;28;20030;-85
2022/10/09 10:00:34;;;;;;;9.15;3.25;;;;;;;13.66;100.00;99066.66;4991852;28;20037;-84
2022/10/09 10:03:12;;;;;;;11.65;3.85;;;;;;;14.05;100.00;99075.28;4958550;28;20500;-83
2022/10/09 10:05:39;;;;;;;12.00;4.47;;;;;;;14.11;100.00;99069.13;4973569;28;20026;-84
2022/10/09 10:08:20;;;;;;;11.40;4.50;;;;;;;13.94;100.00;99081.25;4974645;28;20065;-83
2022/10/09 10:10:47;;;;;;;10.85;3.78;;;;;;;14.17;100.00;99058.75;4957590;28;20034;-84
2022/10/09 10:13:18;;;;;;;11.60;3.53;;;;;;;14.02;100.00;99061.69;4974830;28;20041;-84
2022/10/09 10:16:04;;;;;;;8.75;4.15;;;;;;;13.79;100.00;99065.75;4974784;28;20133;-84
2022/10/09 10:18:37;;;;;;;14.20;5.07;;;;;;;13.75;100.00;99056.66;4974183;28;20093;-84
2022/10/09 10:21:06;;;;;;;10.80;3.55;;;;;;;13.67;100.00;99050.63;4992396;28;20033;-84
2022/10/09 10:23:44;;;;;;;7.88;3.65;;;;;;;13.47;100.00;99034.13;4958129;28;20085;-84
2022/10/09 10:26:29;;;;;;;11.98;3.55;;;;;;;13.55;100.00;99042.56;4992097;28;20113;-83
2022/10/09 10:29:34;;;;;;;12.68;4.00;;;;;;;13.59;100.00;99042.16;4957082;28;20038;-84
2022/10/09 10:32:24;;;;;;;11.70;2.88;;;;;;;13.84;100.00;99036.88;4973463;28;20114;-84
2022/10/09 10:34:53;;;;;;;8.05;3.20;;;;;;;13.86;100.00;99029.59;4991776;28;20038;-83
2022/10/09 10:37:22;;;;;;;13.30;3.35;;;;;;;13.97;100.00;99038.63;4957315;28;20038;-82
2022/10/09 10:40:09;;;;;;;10.45;3.40;;;;;;;13.94;100.00;99018.75;4990918;28;20385;-82
2022/10/09 10:43:10;;;;;;;16.75;3.78;;;;;;;14.15;100.00;99019.34;4958195;28;20096;-83
2022/10/09 10:45:58;;;;;;;9.43;3.60;;;;;;;14.41;100.00;99022.72;4972720;28;20030;-84
2022/10/09 10:48:39;;;;;;;8.95;3.28;;;;;;;14.41;100.00;99018.28;4990899;28;20034;-84
2022/10/09 10:51:30;;;;;;;16.10;3.63;;;;;;;14.47;100.00;99005.22;4957090;28;20095;-83
2022/10/09 10:54:17;;;;;;;9.80;4.13;;;;;;;14.61;100.00;98985.53;4990798;28;20033;-84
2022/10/09 10:57:08;;;;;;;20.10;5.30;;;;;;;14.50;100.00;98991.56;4958373;28;20038;-84
2022/10/09 10:59:59;;;;;;;14.20;4.82;;;;;;;14.91;100.00;98990.06;4958366;28;20030;-83
2022/10/09 11:02:34;;;;;;;14.77;6.65;;;;;;;15.11;100.00;98978.41;4972975;28;20396;-84
2022/10/09 11:05:30;;;;;;;15.73;5.53;;;;;;;14.96;100.00;98974.34;4973758;28;20026;-84
2022/10/09 11:08:11;;;;;;;10.88;5.20;;;;;;;15.17;100.00;98976.69;4958201;28;20030;-84
2022/10/09 11:11:00;;;;;;;13.07;4.38;;;;;;;14.95;100.00;98959.53;4973705;28;20042;-83
2022/10/09 11:13:58;;;;;;;12.55;5.47;;;;;;;15.06;100.00;98959.78;4990969;28;20049;-84
2022/10/09 11:16:48;;;;;;;17.38;5.18;;;;;;;15.19;100.00;98956.94;4939580;28;20049;-84
2022/10/09 11:19:25;;;;;;;15.18;6.03;;;;;;;15.35;100.00;98963.41;4990832;28;20050;-83
2022/10/09 11:22:22;;;;;;;11.32;4.57;;;;;;;15.13;100.00;98955.19;4974367;28;20065;-84
2022/10/09 11:25:05;;;;;;;13.98;4.90;;;;;;;15.31;100.00;98946.38;4990236;28;20033;-84
2022/10/09 11:27:52;;;;;;;10.50;4.22;;;;;;;15.36;100.00;98933.28;4990850;28;20073;-84
2022/10/09 11:30:19;;;;;;;8.80;3.92;;;;;;;15.50;100.00;98949.72;4973353;28;20030;-83
2022/10/09 11:33:10;;;;;;;12.50;4.60;;;;;;;15.55;100.00;98941.09;4957559;28;20098;-83
2022/10/09 11:36:00;;;;;;;14.45;4.47;;;;;;;15.67;100.00;98941.09;4956571;28;20492;-85
2022/10/09 11:38:41;;;;;;;13.40;5.30;;;;;;;15.37;100.00;98918.22;4957481;28;20073;-83
2022/10/09 11:41:06;;;;;;;12.05;4.72;;;;;;;15.81;100.00;98915.19;4973899;28;20027;-86
2022/10/09 11:43:59;;;;;;;10.50;3.50;;;;;;;15.96;100.00;98912.13;4957454;28;20077;-84
2022/10/09 11:46:42;;;;;;;6.77;2.73;;;;;;;16.22;100.00;98904.69;4972244;28;20088;-83